Time;durP1;ratioP1;P1;durP2;ratioP2;P2;SDS_P1;SDS_P2;PMS_P1;PMS_P2;Temp;Humidity;BMP_temperature;BMP_pressure;BME280_temperature;BME280_humidity;BME280_pressure;Samples;Min_cycle;Max_cycle;Signal;HPM_P1;HPM_P2
2022/05/24 00:01:47;;;;;;;3.33;1.08;;;;;;;22.75;29.92;100556.78;5085424;28;20405;-61
2022/05/24 00:04:14;;;;;;;4.25;1.10;;;;;;;22.66;30.34;100556.41;5075032;28;20486;-62
2022/05/24 00:06:41;;;;;;;2.40;0.97;;;;;;;22.32;30.91;100554.69;5064626;28;20434;-62
2022/05/24 00:09:07;;;;;;;2.90;1.10;;;;;;;22.12;31.55;100549.00;5064949;28;20419;-61
2022/05/24 00:11:34;;;;;;;1.80;1.00;;;;;;;21.93;32.09;100552.00;5064120;28;20422;-61
2022/05/24 00:14:01;;;;;;;3.17;1.20;;;;;;;21.75;32.73;100549.59;5064039;28;20797;-60
2022/05/24 00:16:30;;;;;;;2.10;1.20;;;;;;;21.68;33.14;100552.47;5064283;28;20468;-61
2022/05/24 00:18:57;;;;;;;2.08;1.30;;;;;;;21.60;33.72;100560.97;5064604;28;20431;-61
2022/05/24 00:21:24;;;;;;;2.08;1.40;;;;;;;21.53;34.13;100557.63;5064685;28;20412;-60
2022/05/24 00:23:51;;;;;;;3.00;1.55;;;;;;;21.46;34.71;100549.69;5064067;28;20504;-61
2022/05/24 00:26:24;;;;;;;2.03;1.40;;;;;;;21.51;35.08;100552.47;5064102;28;20428;-63
2022/05/24 00:28:51;;;;;;;3.20;1.77;;;;;;;20.98;36.67;100559.97;5064148;28;20456;-61
2022/05/24 00:31:18;;;;;;;3.97;1.65;;;;;;;20.55;37.75;100565.88;5063820;28;20786;-61
2022/05/24 00:33:46;;;;;;;4.43;1.60;;;;;;;20.91;37.42;100572.78;5064427;28;20442;-60
2022/05/24 00:36:13;;;;;;;2.42;1.40;;;;;;;20.79;37.64;100575.50;5064181;28;20438;-60
2022/05/24 00:38:40;;;;;;;3.03;1.48;;;;;;;20.69;38.02;100586.13;5063360;28;20436;-61
2022/05/24 00:41:24;;;;;;;4.15;1.50;;;;;;;20.20;39.17;100577.53;5063914;28;20416;-60
2022/05/24 00:46:27;;;;;;;2.75;1.60;;;;;;;20.63;38.63;100578.97;5105465;27;20752;-60
2022/05/24 00:48:58;;;;;;;3.72;1.45;;;;;;;20.40;39.17;100583.38;5104941;28;20423;-60
2022/05/24 00:55:41;;;;;;;4.93;1.70;;;;;;;19.88;40.89;100596.78;5110502;27;20470;-61
2022/05/24 00:58:15;;;;;;;4.40;1.60;;;;;;;19.82;41.10;100597.72;5088193;28;20998;-61
2022/05/24 01:00:43;;;;;;;3.50;1.70;;;;;;;19.72;41.44;100600.16;5096041;28;20424;-61
2022/05/24 01:03:10;;;;;;;4.32;1.67;;;;;;;19.97;41.32;100605.31;5095849;28;20416;-61
2022/05/24 01:05:37;;;;;;;3.22;1.60;;;;;;;20.25;40.71;100607.25;5090675;28;20428;-62
2022/05/24 01:08:04;;;;;;;4.22;1.85;;;;;;;20.15;41.16;100615.94;5087457;28;20523;-61
2022/05/24 01:10:37;;;;;;;3.83;1.90;;;;;;;19.92;41.66;100611.41;5090152;28;20460;-58
2022/05/24 01:13:09;;;;;;;3.10;1.90;;;;;;;19.78;42.18;100612.69;5095294;28;20440;-60
2022/05/24 01:15:38;;;;;;;4.75;1.88;;;;;;;19.82;42.15;100611.97;5099009;28;20427;-62
2022/05/24 01:18:05;;;;;;;4.03;1.70;;;;;;;19.92;41.92;100608.72;5089104;28;20424;-61
2022/05/24 01:20:33;;;;;;;4.00;1.90;;;;;;;19.90;42.07;100615.34;5089825;28;20417;-61
2022/05/24 01:23:25;;;;;;;4.40;1.85;;;;;;;19.68;42.51;100600.59;5095329;28;20429;-62
2022/05/24 01:25:59;;;;;;;4.38;1.98;;;;;;;19.62;42.68;100620.34;5100876;28;20412;-60
2022/05/24 01:28:32;;;;;;;6.45;1.90;;;;;;;19.86;42.50;100620.38;5073134;28;20426;-61
2022/05/24 01:31:00;;;;;;;4.88;1.88;;;;;;;20.00;42.25;100629.06;5096892;28;20642;-61
2022/05/24 01:36:11;;;;;;;3.30;2.08;;;;;;;19.90;42.46;100626.13;5108373;27;20450;-59
2022/05/24 01:38:44;;;;;;;3.33;1.83;;;;;;;19.88;42.50;100626.38;5071116;28;20849;-59
2022/05/24 01:41:15;;;;;;;3.60;2.08;;;;;;;19.86;42.84;100631.16;5095537;28;20496;-59
2022/05/24 01:43:56;;;;;;;5.13;2.10;;;;;;;19.77;43.02;100637.94;5083782;28;20459;-60
2022/05/24 01:46:27;;;;;;;5.85;2.00;;;;;;;19.91;42.66;100639.34;5080623;28;20430;-61
2022/05/24 01:48:58;;;;;;;3.30;1.90;;;;;;;20.00;42.50;100645.19;5072833;28;20432;-60
2022/05/24 01:51:30;;;;;;;5.13;2.13;;;;;;;20.07;42.32;100632.44;5072385;28;20924;-60
2022/05/24 01:54:01;;;;;;;2.67;2.05;;;;;;;19.96;42.48;100636.78;5078932;28;20418;-61
2022/05/24 01:56:34;;;;;;;4.22;2.17;;;;;;;19.76;43.04;100639.00;5053364;28;20808;-60
2022/05/24 01:59:04;;;;;;;7.00;2.20;;;;;;;19.85;42.87;100643.78;5074873;28;20427;-60
2022/05/24 02:01:40;;;;;;;5.43;2.50;;;;;;;19.88;42.86;100637.13;5077107;28;20418;-61
2022/05/24 02:04:07;;;;;;;5.32;2.42;;;;;;;19.90;42.87;100640.41;5067209;28;20423;-60
2022/05/24 02:06:34;;;;;;;5.30;2.50;;;;;;;19.83;43.26;100651.28;5079306;28;20416;-60
2022/05/24 02:09:01;;;;;;;8.23;2.50;;;;;;;19.86;43.01;100652.66;5065469;28;20426;-61
2022/05/24 02:11:30;;;;;;;7.20;2.83;;;;;;;19.80;43.33;100659.81;5075728;28;20426;-60
2022/05/24 02:14:02;;;;;;;6.35;2.63;;;;;;;19.85;43.29;100654.53;5066865;28;20510;-64
2022/05/24 02:16:34;;;;;;;4.82;2.50;;;;;;;20.01;42.97;100654.91;5056273;28;20418;-60
2022/05/24 02:19:02;;;;;;;5.85;2.70;;;;;;;20.04;43.02;100657.13;5074483;28;20415;-62
2022/05/24 02:21:29;;;;;;;5.38;2.40;;;;;;;20.13;42.88;100660.28;5065500;28;20437;-61
2022/05/24 02:23:56;;;;;;;3.45;2.47;;;;;;;20.08;42.98;100660.16;5079262;28;21342;-61
2022/05/24 02:26:26;;;;;;;3.75;2.20;;;;;;;20.10;42.74;100666.97;5079165;28;20423;-61
2022/05/24 02:28:55;;;;;;;3.97;2.00;;;;;;;20.11;42.73;100665.91;5070727;28;20414;-61
2022/05/24 02:31:24;;;;;;;3.70;2.13;;;;;;;20.13;42.59;100662.97;5072159;28;20940;-60
2022/05/24 02:33:52;;;;;;;5.35;2.60;;;;;;;20.13;42.55;100661.13;5079299;28;20493;-61
2022/05/24 02:36:19;;;;;;;3.57;2.00;;;;;;;20.17;42.43;100659.59;5070508;28;20423;-62
2022/05/24 02:38:47;;;;;;;4.30;2.22;;;;;;;20.18;42.57;100668.47;5069821;28;20418;-61
2022/05/24 02:41:28;;;;;;;4.40;2.05;;;;;;;20.21;42.24;100671.50;5074044;28;20412;-61
2022/05/24 02:43:57;;;;;;;3.35;2.10;;;;;;;20.10;42.65;100666.97;5079561;28;20489;-61
2022/05/24 02:46:24;;;;;;;5.10;2.30;;;;;;;20.07;42.63;100658.53;5066169;28;20429;-61
2022/05/24 02:48:53;;;;;;;5.03;2.20;;;;;;;20.01;42.71;100658.41;5076903;28;20811;-60
2022/05/24 02:51:20;;;;;;;5.63;2.33;;;;;;;19.96;42.99;100665.56;5073810;28;20422;-64
2022/05/24 02:53:47;;;;;;;4.93;2.10;;;;;;;19.86;43.34;100661.59;5063553;28;20922;-61
2022/05/24 02:56:15;;;;;;;3.17;2.20;;;;;;;19.70;43.62;100656.84;5066379;28;20425;-61
2022/05/24 02:58:43;;;;;;;4.15;2.40;;;;;;;19.54;43.99;100652.16;5055127;28;20414;-60
2022/05/24 03:01:15;;;;;;;4.32;2.30;;;;;;;19.46;44.04;100658.66;5061014;28;20455;-60
2022/05/24 03:03:43;;;;;;;3.53;2.30;;;;;;;19.62;43.84;100654.50;5063489;28;20426;-61
2022/05/24 03:06:11;;;;;;;5.38;2.20;;;;;;;19.82;43.58;100654.19;5052415;28;20956;-60
2022/05/24 03:11:22;;;;;;;4.45;2.00;;;;;;;19.93;43.26;100661.44;5060461;28;20508;-61
2022/05/24 03:16:34;;;;;;;4.20;2.17;;;;;;;20.01;43.01;100652.22;5038402;28;20409;-61
2022/05/24 03:19:01;;;;;;;5.40;2.00;;;;;;;20.10;42.82;100658.09;5055479;28;20425;-60
2022/05/24 03:21:29;;;;;;;5.13;2.30;;;;;;;19.99;43.11;100662.41;5040994;28;20776;-60
2022/05/24 03:23:56;;;;;;;12.23;3.03;;;;;;;20.11;43.00;100663.19;5040717;28;20440;-60
2022/05/24 03:26:23;;;;;;;6.03;2.40;;;;;;;20.15;42.83;100677.84;5034193;28;20427;-58
2022/05/24 03:28:50;;;;;;;4.20;2.38;;;;;;;20.21;42.61;100679.59;5038311;28;20427;-60
2022/05/24 03:31:17;;;;;;;6.65;2.25;;;;;;;20.30;42.51;100676.56;5060310;28;20411;-61
2022/05/24 03:33:44;;;;;;;6.07;2.10;;;;;;;20.35;42.31;100687.44;5054363;28;20439;-61
2022/05/24 03:36:11;;;;;;;3.97;2.20;;;;;;;20.40;42.22;100684.84;5049600;28;20411;-61
2022/05/24 03:38:39;;;;;;;3.00;2.00;;;;;;;20.44;42.13;100677.94;5049021;28;20933;-62
2022/05/24 03:41:06;;;;;;;3.13;1.90;;;;;;;20.44;42.05;100684.13;5048781;28;20412;-60
2022/05/24 03:43:34;;;;;;;5.18;2.10;;;;;;;20.39;42.44;100686.72;5066961;28;20503;-61
2022/05/24 03:46:05;;;;;;;6.00;2.30;;;;;;;20.41;42.17;100698.06;5068943;28;20415;-62
2022/05/24 03:48:33;;;;;;;7.78;2.30;;;;;;;20.54;42.11;100706.94;5068834;28;20407;-60
2022/05/24 03:51:00;;;;;;;4.68;2.40;;;;;;;20.62;41.97;100720.09;5069303;28;20415;-62
2022/05/24 03:53:28;;;;;;;4.35;2.10;;;;;;;20.65;41.92;100726.88;5069254;28;20770;-61
2022/05/24 03:55:56;;;;;;;4.45;2.10;;;;;;;20.77;41.63;100731.19;5069509;28;20411;-61
2022/05/24 03:58:24;;;;;;;6.75;2.20;;;;;;;20.72;41.82;100725.69;5068897;28;20411;-62
2022/05/24 04:00:51;;;;;;;3.95;2.15;;;;;;;20.68;41.71;100726.41;5069290;28;20454;-61
2022/05/24 04:03:19;;;;;;;5.60;2.40;;;;;;;20.67;41.77;100722.06;5068765;28;20432;-60
2022/05/24 04:05:46;;;;;;;5.55;2.38;;;;;;;20.61;41.76;100734.59;5068295;28;20425;-58
2022/05/24 04:08:13;;;;;;;4.35;2.33;;;;;;;20.63;42.06;100732.50;5069289;28;20410;-59
2022/05/24 04:10:41;;;;;;;5.05;2.60;;;;;;;20.73;41.95;100745.38;5068947;28;20425;-61
2022/05/24 04:13:09;;;;;;;4.72;2.60;;;;;;;20.68;42.04;100748.78;5068948;28;20474;-59
2022/05/24 04:15:36;;;;;;;7.20;2.30;;;;;;;20.75;41.76;100751.34;5068773;28;20427;-59
2022/05/24 04:18:03;;;;;;;5.77;2.60;;;;;;;20.78;42.04;100758.97;5068616;28;20916;-59
2022/05/24 04:20:30;;;;;;;9.23;5.90;;;;;;;20.82;41.86;100760.13;5068510;28;20415;-59
2022/05/24 04:22:58;;;;;;;9.93;6.95;;;;;;;20.87;41.69;100752.16;5068597;28;20465;-61
2022/05/24 04:25:26;;;;;;;9.18;4.78;;;;;;;20.67;42.17;100754.38;5069018;28;20410;-59
2022/05/24 04:27:54;;;;;;;3.77;2.50;;;;;;;20.66;41.79;100755.47;5068802;28;20417;-60
2022/05/24 04:30:23;;;;;;;4.38;2.30;;;;;;;20.83;41.33;100758.25;5068297;28;20415;-61
2022/05/24 04:32:49;;;;;;;3.93;1.87;;;;;;;20.65;41.50;100751.13;5068478;28;20407;-60
2022/05/24 04:35:16;;;;;;;3.80;1.88;;;;;;;21.15;40.87;100754.06;5068453;28;20793;-59
2022/05/24 04:37:43;;;;;;;5.18;2.22;;;;;;;21.17;40.44;100764.59;5068256;28;20413;-59
2022/05/24 04:40:11;;;;;;;5.43;2.20;;;;;;;21.06;40.29;100760.88;5068115;28;20419;-59
2022/05/24 04:42:38;;;;;;;3.25;2.15;;;;;;;21.33;40.02;100771.13;5068426;28;20427;-63
2022/05/24 04:45:08;;;;;;;3.90;2.15;;;;;;;21.44;39.82;100766.72;5068488;28;20486;-59
2022/05/24 04:47:37;;;;;;;3.97;1.95;;;;;;;21.12;40.08;100764.50;5067791;28;20789;-59
2022/05/24 04:50:07;;;;;;;3.60;2.00;;;;;;;21.35;39.71;100769.00;5068450;28;20415;-59
2022/05/24 04:52:37;;;;;;;5.50;1.90;;;;;;;21.53;39.25;100765.31;5068339;28;20461;-59
2022/05/24 04:55:05;;;;;;;4.32;2.00;;;;;;;21.59;39.19;100767.06;5068194;28;20407;-60
2022/05/24 04:57:33;;;;;;;3.70;2.00;;;;;;;21.74;38.90;100769.22;5068164;28;20411;-60
2022/05/24 05:00:00;;;;;;;5.63;2.10;;;;;;;21.92;38.71;100771.69;5067446;28;20417;-61
2022/05/24 05:02:27;;;;;;;3.88;2.05;;;;;;;21.69;38.76;100769.91;5067938;28;20418;-59
2022/05/24 05:04:55;;;;;;;2.92;1.90;;;;;;;21.93;38.63;100776.03;5068237;28;20429;-61
2022/05/24 05:07:23;;;;;;;4.25;2.03;;;;;;;21.63;38.80;100776.31;5067408;28;20413;-60
2022/05/24 05:09:51;;;;;;;5.40;2.28;;;;;;;20.95;39.76;100773.31;5068215;28;20421;-59
2022/05/24 05:12:19;;;;;;;2.75;1.90;;;;;;;20.98;40.17;100777.44;5067771;28;20510;-59
2022/05/24 05:14:46;;;;;;;3.00;2.10;;;;;;;21.14;39.71;100773.16;5067311;28;20437;-59
2022/05/24 05:17:16;;;;;;;5.22;2.40;;;;;;;20.96;39.78;100785.75;5067465;28;20935;-59
2022/05/24 05:19:43;;;;;;;3.28;2.10;;;;;;;20.89;40.44;100793.16;5067201;28;20518;-59
2022/05/24 05:22:12;;;;;;;2.78;2.10;;;;;;;21.06;40.22;100790.53;5067577;28;20411;-60
2022/05/24 05:24:40;;;;;;;4.07;2.30;;;;;;;20.87;40.19;100784.47;5067431;28;21023;-62
2022/05/24 05:27:07;;;;;;;4.38;2.17;;;;;;;20.45;41.13;100795.34;5067666;28;20905;-59
2022/05/24 05:32:20;;;;;;;3.13;2.13;;;;;;;21.12;40.59;100778.81;5067272;28;20482;-60
2022/05/24 05:34:48;;;;;;;4.18;2.10;;;;;;;20.74;40.88;100782.88;5067609;28;20421;-59
2022/05/24 05:37:17;;;;;;;2.92;2.10;;;;;;;20.98;40.34;100777.44;5067827;28;20411;-59
2022/05/24 05:39:44;;;;;;;3.70;2.20;;;;;;;21.10;40.38;100775.50;5067664;28;20413;-59
2022/05/24 05:42:11;;;;;;;2.55;2.10;;;;;;;21.31;39.99;100781.31;5067220;28;20425;-59
2022/05/24 05:44:39;;;;;;;3.87;2.20;;;;;;;21.69;39.54;100806.88;5067275;28;20453;-60
2022/05/24 05:47:06;;;;;;;4.60;2.30;;;;;;;21.32;40.05;100802.66;5067211;28;20485;-59
2022/05/24 05:49:34;;;;;;;2.57;2.30;;;;;;;20.54;41.35;100803.91;5067408;28;20450;-59
2022/05/24 05:52:01;;;;;;;3.50;2.15;;;;;;;20.91;41.06;100795.59;5066399;28;20419;-60
2022/05/24 05:54:29;;;;;;;4.45;2.35;;;;;;;20.92;40.75;100811.53;5067608;28;20407;-59
2022/05/24 05:56:56;;;;;;;3.72;2.53;;;;;;;20.13;42.23;100811.00;5066895;28;20415;-59
2022/05/24 05:59:23;;;;;;;7.63;2.42;;;;;;;20.70;41.66;100807.81;5067151;28;20417;-60
2022/05/24 06:01:50;;;;;;;3.60;2.20;;;;;;;20.74;41.46;100806.25;5067306;28;20883;-59
2022/05/24 06:04:17;;;;;;;6.13;2.30;;;;;;;21.07;41.13;100805.66;5067030;28;21313;-61
2022/05/24 06:06:45;;;;;;;3.15;2.30;;;;;;;21.47;40.25;100812.13;5067307;28;20414;-58
2022/05/24 06:09:12;;;;;;;4.20;2.38;;;;;;;20.74;41.23;100800.88;5066892;28;20939;-59
2022/05/24 06:11:42;;;;;;;2.67;2.30;;;;;;;20.89;41.27;100795.03;5067357;28;20417;-62
2022/05/24 06:14:09;;;;;;;7.35;2.40;;;;;;;21.55;40.48;100800.94;5067155;28;20407;-58
2022/05/24 06:16:37;;;;;;;2.90;2.10;;;;;;;22.04;39.45;100797.78;5067388;28;20415;-60
2022/05/24 06:19:04;;;;;;;4.32;2.33;;;;;;;21.94;39.47;100787.63;5068257;28;20437;-59
2022/05/24 06:21:33;;;;;;;4.73;2.30;;;;;;;22.44;38.64;100784.13;5068228;28;20411;-59
2022/05/24 06:24:02;;;;;;;4.22;2.40;;;;;;;23.29;37.17;100784.72;5068302;28;20997;-59
2022/05/24 06:26:30;;;;;;;7.15;2.13;;;;;;;23.95;36.05;100788.38;5067823;28;20897;-60
2022/05/24 06:28:58;;;;;;;5.53;2.70;;;;;;;24.12;35.63;100783.66;5069312;28;20414;-60
2022/05/24 06:31:26;;;;;;;5.63;2.38;;;;;;;24.62;34.86;100776.19;5071988;28;20909;-60
2022/05/24 06:33:53;;;;;;;4.45;2.05;;;;;;;24.07;35.16;100788.22;5072177;28;20407;-61
2022/05/24 06:36:20;;;;;;;4.43;2.20;;;;;;;24.08;34.95;100781.75;5071503;28;20425;-60
2022/05/24 06:38:47;;;;;;;4.85;2.42;;;;;;;24.23;35.26;100795.41;5072448;28;20774;-61
2022/05/24 06:41:14;;;;;;;2.70;2.10;;;;;;;24.41;34.56;100796.88;5071777;28;20414;-59
2022/05/24 06:43:41;;;;;;;2.70;2.20;;;;;;;24.89;33.92;100799.66;5072047;28;20789;-61
2022/05/24 06:46:10;;;;;;;2.38;2.03;;;;;;;24.19;35.08;100803.22;5071335;28;20411;-61
2022/05/24 06:48:37;;;;;;;5.55;2.33;;;;;;;24.53;34.58;100802.16;5071652;28;20417;-59
2022/05/24 06:51:10;;;;;;;3.92;2.50;;;;;;;24.84;33.83;100796.91;5070972;28;20485;-59
2022/05/24 06:53:37;;;;;;;4.57;2.38;;;;;;;24.79;33.67;100795.81;5070275;28;20419;-62
2022/05/24 06:56:05;;;;;;;4.72;2.30;;;;;;;25.06;33.63;100789.41;5070667;28;20435;-59
2022/05/24 06:58:31;;;;;;;5.03;2.50;;;;;;;25.43;32.90;100785.78;5070172;28;20418;-61
2022/05/24 07:03:45;;;;;;;2.80;2.03;;;;;;;24.52;34.40;100784.22;5070199;28;20946;-60
2022/05/24 07:06:12;;;;;;;4.23;2.00;;;;;;;24.18;35.17;100777.22;5070427;28;20407;-60
2022/05/24 07:08:39;;;;;;;5.65;2.20;;;;;;;24.46;34.43;100767.13;5069808;28;20458;-60
2022/05/24 07:11:07;;;;;;;5.53;2.28;;;;;;;24.12;35.51;100772.84;5070135;28;20498;-61
2022/05/24 07:13:34;;;;;;;3.40;2.40;;;;;;;23.25;36.76;100788.22;5070278;28;20418;-62
2022/05/24 07:16:01;;;;;;;3.23;2.33;;;;;;;23.11;37.67;100789.66;5070161;28;20461;-61
2022/05/24 07:18:27;;;;;;;3.67;2.28;;;;;;;23.98;35.99;100793.28;5069705;28;20421;-61
2022/05/24 07:20:56;;;;;;;3.65;2.55;;;;;;;23.34;36.81;100789.41;5069894;28;20419;-61
2022/05/24 07:23:25;;;;;;;3.58;2.30;;;;;;;23.37;36.75;100798.88;5070086;28;20415;-60
2022/05/24 07:25:53;;;;;;;3.30;2.25;;;;;;;23.55;36.67;100787.75;5069802;28;20845;-60
2022/05/24 07:28:22;;;;;;;3.92;2.15;;;;;;;23.79;36.90;100793.66;5070016;28;20411;-60
2022/05/24 07:30:50;;;;;;;4.25;2.42;;;;;;;22.90;37.59;100787.50;5070094;28;20427;-59
2022/05/24 07:33:17;;;;;;;7.05;2.88;;;;;;;22.65;37.97;100779.84;5069615;28;20967;-59
2022/05/24 07:35:45;;;;;;;8.10;3.35;;;;;;;23.50;37.16;100789.56;5070058;28;20414;-59
2022/05/24 07:38:14;;;;;;;7.50;3.08;;;;;;;23.29;37.38;100783.94;5069398;28;20418;-61
2022/05/24 07:46:12;;;;;;;2.83;2.50;;;;;;;23.00;37.79;100786.81;5068944;28;20406;-60
2022/05/24 07:48:40;;;;;;;6.17;2.63;;;;;;;23.39;37.46;100797.56;5069434;28;20415;-60
2022/05/24 07:51:07;;;;;;;4.05;2.70;;;;;;;23.63;36.50;100795.38;5069089;28;20785;-62
2022/05/24 07:53:36;;;;;;;3.72;2.40;;;;;;;23.32;37.81;100798.81;5070977;28;20462;-61
2022/05/24 07:56:04;;;;;;;6.38;2.72;;;;;;;23.48;37.15;100811.47;5069967;28;20918;-59
2022/05/24 07:58:31;;;;;;;4.22;2.60;;;;;;;23.25;37.62;100812.56;5071258;28;20403;-59
2022/05/24 08:00:59;;;;;;;4.70;2.90;;;;;;;22.81;38.35;100829.50;5070958;28;20415;-60
2022/05/24 08:03:27;;;;;;;4.70;2.40;;;;;;;22.93;38.39;100824.00;5070799;28;20935;-60
2022/05/24 08:05:54;;;;;;;4.90;2.60;;;;;;;22.69;38.93;100837.75;5071089;28;20421;-60
2022/05/24 08:08:21;;;;;;;4.00;2.38;;;;;;;22.48;39.28;100838.50;5071116;28;20419;-60
2022/05/24 08:10:50;;;;;;;4.85;2.67;;;;;;;22.28;40.02;100839.78;5070756;28;20464;-60
2022/05/24 08:13:19;;;;;;;3.90;2.58;;;;;;;22.13;40.55;100842.22;5069584;28;20770;-60
2022/05/24 08:15:47;;;;;;;5.27;2.40;;;;;;;22.03;40.98;100842.03;5068533;28;20426;-61
2022/05/24 08:18:14;;;;;;;3.25;2.50;;;;;;;22.17;40.29;100861.44;5068921;28;20407;-60
2022/05/24 08:20:41;;;;;;;3.90;2.50;;;;;;;22.56;39.88;100885.88;5070119;28;20433;-59
2022/05/24 08:23:27;;;;;;;6.50;2.53;;;;;;;22.50;39.82;100920.91;5069844;28;20411;-61
2022/05/24 08:25:56;;;;;;;2.72;2.10;;;;;;;22.36;39.87;100935.78;5070062;28;20407;-60
2022/05/24 08:28:24;;;;;;;4.23;2.20;;;;;;;22.45;39.47;100957.81;5070111;28;20411;-60
2022/05/24 08:30:53;;;;;;;4.30;2.33;;;;;;;22.36;39.18;100962.00;5070630;28;21545;-59
2022/05/24 08:33:21;;;;;;;4.43;2.20;;;;;;;22.19;39.56;100949.25;5070189;28;20422;-60
2022/05/24 08:35:48;;;;;;;5.87;2.23;;;;;;;22.15;39.60;100931.91;5070252;28;20418;-59
2022/05/24 08:38:15;;;;;;;4.38;2.38;;;;;;;21.79;40.21;100924.97;5070406;28;20411;-60
2022/05/24 08:40:44;;;;;;;4.88;2.17;;;;;;;21.58;40.65;100906.50;5070334;28;20411;-60
2022/05/24 08:43:44;;;;;;;5.07;2.25;;;;;;;21.45;40.85;100871.72;5070555;28;20423;-59
2022/05/24 08:49:04;;;;;;;3.53;2.20;;;;;;;21.70;40.87;100843.59;5069946;28;20437;-59
2022/05/24 08:51:37;;;;;;;3.13;2.20;;;;;;;21.74;40.99;100815.06;5069730;28;20423;-59
2022/05/24 08:54:08;;;;;;;7.43;2.22;;;;;;;21.58;41.22;100801.28;5070151;28;20421;-60
2022/05/24 08:56:39;;;;;;;3.42;2.10;;;;;;;21.36;41.65;100784.94;5069369;28;20418;-60
2022/05/24 08:59:14;;;;;;;4.85;2.10;;;;;;;21.64;41.51;100786.00;5070131;28;20403;-60
2022/05/24 09:01:44;;;;;;;3.05;2.10;;;;;;;21.96;41.09;100816.00;5070039;28;20433;-59
2022/05/24 09:04:13;;;;;;;3.42;2.20;;;;;;;21.79;40.90;100868.31;5069977;28;20516;-59
2022/05/24 09:06:46;;;;;;;4.80;2.00;;;;;;;22.08;40.07;100890.72;5069857;28;20425;-60
2022/05/24 09:09:28;;;;;;;3.88;1.98;;;;;;;22.19;39.76;100876.34;5069660;28;20919;-60
2022/05/24 09:12:08;;;;;;;3.78;1.83;;;;;;;22.04;39.82;100855.28;5069561;28;20423;-59
2022/05/24 09:14:45;;;;;;;2.97;1.95;;;;;;;22.12;39.90;100862.97;5069440;28;20755;-59
2022/05/24 09:17:28;;;;;;;6.13;1.88;;;;;;;21.92;39.99;100871.53;5069497;28;20912;-59
2022/05/24 09:19:55;;;;;;;4.10;1.90;;;;;;;21.65;40.76;100876.69;5069512;28;20931;-58
2022/05/24 09:22:22;;;;;;;5.30;2.10;;;;;;;21.69;41.08;100888.63;5069814;28;20517;-59
2022/05/24 09:24:56;;;;;;;7.97;2.65;;;;;;;21.19;43.30;100876.53;5069416;28;20427;-60
2022/05/24 09:27:26;;;;;;;9.18;2.50;;;;;;;20.93;44.69;100880.53;5069809;28;20419;-59
2022/05/24 09:29:57;;;;;;;4.43;2.20;;;;;;;20.59;45.92;100874.84;5069695;28;20414;-60
2022/05/24 09:32:34;;;;;;;4.72;2.45;;;;;;;20.71;45.98;100872.22;5069761;28;20425;-60
2022/05/24 09:35:05;;;;;;;5.10;2.15;;;;;;;20.75;45.19;100870.69;5069648;28;20862;-59
2022/05/24 09:37:32;;;;;;;2.30;1.90;;;;;;;20.77;44.86;100873.16;5069635;28;20444;-60
2022/05/24 09:40:01;;;;;;;2.95;1.80;;;;;;;20.98;44.54;100856.41;5069331;28;20918;-60
2022/05/24 09:42:31;;;;;;;3.67;1.90;;;;;;;21.18;43.37;100864.09;5069528;28;20410;-58
2022/05/24 09:45:04;;;;;;;2.70;1.70;;;;;;;21.16;43.30;100871.63;5069205;28;20955;-59
2022/05/24 09:47:37;;;;;;;2.97;2.00;;;;;;;21.11;44.04;100862.59;5069540;28;20419;-59
2022/05/24 09:50:24;;;;;;;4.47;2.10;;;;;;;21.06;43.50;100855.22;5069583;28;20414;-59
2022/05/24 09:53:15;;;;;;;2.58;1.70;;;;;;;21.58;42.72;100860.63;5069534;28;20429;-60
2022/05/24 09:55:45;;;;;;;4.05;2.10;;;;;;;21.44;42.25;100856.53;5069170;28;20413;-60
2022/05/24 09:58:26;;;;;;;4.20;2.00;;;;;;;21.96;40.72;100852.97;5069089;28;20935;-60
2022/05/24 10:00:56;;;;;;;4.07;2.10;;;;;;;22.10;40.23;100854.31;5069388;28;20414;-61
2022/05/24 10:03:29;;;;;;;4.97;2.22;;;;;;;21.77;41.51;100858.59;5069106;28;20419;-60
2022/05/24 10:06:12;;;;;;;3.00;2.17;;;;;;;21.98;41.46;100856.25;5073019;28;20936;-60
2022/05/24 10:08:43;;;;;;;4.38;2.40;;;;;;;22.60;40.14;100836.53;5073055;28;20916;-60
2022/05/24 10:11:22;;;;;;;7.22;3.45;;;;;;;23.10;39.39;100845.59;5073317;28;20424;-60
2022/05/24 10:13:54;;;;;;;2.97;1.90;;;;;;;23.11;38.97;100857.28;5072942;28;20793;-59
2022/05/24 10:16:28;;;;;;;3.07;2.10;;;;;;;22.78;39.29;100848.94;5073017;28;20415;-60
2022/05/24 10:19:12;;;;;;;5.43;2.87;;;;;;;23.22;39.33;100848.22;5072817;28;20467;-60
2022/05/24 10:21:43;;;;;;;4.18;2.17;;;;;;;23.38;39.09;100836.50;5071533;28;20425;-60
2022/05/24 10:24:25;;;;;;;5.20;2.03;;;;;;;22.86;39.82;100853.91;5072171;28;20414;-60
2022/05/24 10:26:58;;;;;;;4.20;2.50;;;;;;;22.64;40.36;100839.53;5071941;28;20411;-59
2022/05/24 10:29:41;;;;;;;3.00;2.20;;;;;;;22.71;40.61;100832.91;5071886;28;20414;-59
2022/05/24 10:38:17;;;;;;;5.10;2.30;;;;;;;22.69;40.44;100840.44;5071850;28;20788;-59
2022/05/24 10:38:21;;;;;;;4.50;2.40;;;;;;;22.41;40.78;100846.75;5071603;28;20994;-59
2022/05/24 10:41:01;;;;;;;4.80;2.35;;;;;;;22.59;40.82;100834.88;5071421;28;20411;-59
2022/05/24 10:43:46;;;;;;;4.20;2.47;;;;;;;22.68;40.72;100837.97;5071756;28;20938;-59
2022/05/24 10:46:17;;;;;;;5.38;2.50;;;;;;;22.78;40.36;100845.41;5071163;28;20473;-59
2022/05/24 10:48:51;;;;;;;4.95;2.10;;;;;;;22.94;39.85;100846.44;5072373;28;20429;-59
2022/05/24 10:51:30;;;;;;;4.20;2.17;;;;;;;22.69;40.03;100850.44;5072173;28;20410;-60
2022/05/24 10:54:02;;;;;;;3.72;2.33;;;;;;;22.65;39.94;100843.88;5072140;28;20915;-59
2022/05/24 10:56:36;;;;;;;3.33;2.20;;;;;;;22.58;40.42;100840.53;5072158;28;20754;-59
2022/05/24 10:59:12;;;;;;;5.18;2.45;;;;;;;22.96;40.17;100841.59;5072131;28;20920;-59
2022/05/24 11:01:44;;;;;;;3.45;2.00;;;;;;;22.85;40.34;100837.94;5071928;28;20415;-59
2022/05/24 11:04:15;;;;;;;3.65;2.20;;;;;;;22.84;40.08;100839.03;5072412;28;20413;-60
2022/05/24 11:06:49;;;;;;;3.28;2.35;;;;;;;23.05;40.04;100830.16;5071898;28;20417;-60
2022/05/24 11:09:19;;;;;;;3.53;2.10;;;;;;;23.00;40.30;100832.75;5072337;28;20489;-59
2022/05/24 11:11:51;;;;;;;4.07;2.30;;;;;;;23.23;40.12;100823.63;5071737;28;20414;-60
2022/05/24 11:14:27;;;;;;;4.15;2.60;;;;;;;23.20;40.42;100823.31;5071423;28;20415;-61
2022/05/24 11:16:55;;;;;;;3.17;2.20;;;;;;;23.14;40.56;100811.63;5071687;28;20411;-60
2022/05/24 11:19:24;;;;;;;2.80;2.00;;;;;;;23.18;40.23;100815.44;5071701;28;20425;-60
2022/05/24 11:21:59;;;;;;;5.38;2.30;;;;;;;22.86;40.86;100807.97;5071963;28;20411;-61
2022/05/24 11:24:34;;;;;;;3.47;1.90;;;;;;;23.06;41.17;100801.22;5071605;28;20405;-60
2022/05/24 11:27:05;;;;;;;3.15;2.28;;;;;;;22.77;41.84;100793.25;5071899;28;20419;-60
2022/05/24 11:29:43;;;;;;;2.75;1.90;;;;;;;22.85;42.09;100795.53;5071487;28;20830;-60
2022/05/24 11:32:11;;;;;;;2.90;1.98;;;;;;;22.72;41.44;100790.47;5071881;28;20501;-59
2022/05/24 11:34:42;;;;;;;3.50;1.90;;;;;;;22.70;41.86;100792.59;5071750;28;20423;-60
2022/05/24 11:37:22;;;;;;;3.63;2.05;;;;;;;22.83;41.29;100796.84;5071395;28;20793;-60
2022/05/24 11:39:49;;;;;;;3.72;2.20;;;;;;;22.81;41.34;100791.66;5071595;28;20411;-61
2022/05/24 11:42:46;;;;;;;3.63;1.90;;;;;;;22.64;41.59;100793.63;5071271;28;20415;-60
2022/05/24 11:45:46;;;;;;;2.90;2.08;;;;;;;22.68;41.14;100784.75;5071153;28;20436;-59
2022/05/24 11:48:19;;;;;;;3.47;2.00;;;;;;;22.76;41.47;100782.69;5058418;28;20901;-60
2022/05/24 11:50:48;;;;;;;3.30;1.95;;;;;;;22.98;41.41;100777.31;5071111;28;20900;-60
2022/05/24 11:53:47;;;;;;;2.35;1.98;;;;;;;22.70;42.36;100777.19;5071097;28;20900;-60
2022/05/24 11:56:21;;;;;;;3.55;2.20;;;;;;;22.77;42.32;100785.13;5009138;28;20404;-60
2022/05/24 11:58:52;;;;;;;2.75;2.20;;;;;;;22.43;43.04;100768.19;5060418;28;20788;-60
2022/05/24 12:01:52;;;;;;;2.45;2.00;;;;;;;22.59;42.93;100761.13;5070858;28;20909;-61
2022/05/24 12:10:47;;;;;;;3.38;2.15;;;;;;;22.82;42.86;100769.00;5069120;28;20413;-60
2022/05/24 12:13:27;;;;;;;2.60;2.00;;;;;;;22.84;43.02;100758.75;5070276;28;20771;-60
2022/05/24 12:15:56;;;;;;;3.40;2.20;;;;;;;23.07;42.71;100765.03;5070584;28;20501;-60
2022/05/24 12:18:35;;;;;;;3.35;2.30;;;;;;;22.84;42.66;100757.94;5070506;28;20793;-60